createdAt,value
2019-02-16T00:01:29.518Z,99.90
2019-02-16T00:03:59.102Z,99.90
2019-02-16T00:06:37.696Z,99.90
2019-02-16T00:09:10.396Z,99.90
2019-02-16T00:11:45.894Z,99.90
2019-02-16T00:14:15.449Z,99.90
2019-02-16T00:16:45.022Z,99.90
2019-02-16T00:19:14.622Z,99.90
2019-02-16T00:21:44.207Z,99.90
2019-02-16T00:24:13.809Z,99.90
2019-02-16T00:26:44.274Z,99.90
2019-02-16T00:29:13.836Z,99.90
2019-02-16T00:31:43.389Z,99.90
2019-02-16T00:34:13.065Z,99.90
2019-02-16T00:36:42.641Z,99.90
2019-02-16T00:39:12.204Z,99.90
2019-02-16T00:41:41.806Z,99.90
2019-02-16T00:44:11.409Z,99.90
2019-02-16T00:46:40.977Z,99.90
2019-02-16T00:49:10.571Z,99.90
2019-02-16T00:51:40.139Z,99.90
2019-02-16T00:54:09.701Z,99.90
2019-02-16T00:56:39.293Z,99.90
2019-02-16T00:59:08.877Z,99.90
2019-02-16T01:01:38.482Z,99.90
2019-02-16T01:04:08.073Z,99.90
2019-02-16T01:06:37.656Z,99.90
2019-02-16T01:09:07.775Z,99.90
2019-02-16T01:11:37.355Z,99.90
2019-02-16T01:14:06.948Z,99.90
2019-02-16T01:16:36.507Z,99.90
2019-02-16T01:19:07.472Z,99.90
2019-02-16T01:21:37.027Z,99.90
2019-02-16T01:24:06.790Z,99.90
2019-02-16T01:26:36.393Z,99.90
2019-02-16T01:29:06.137Z,99.90
2019-02-16T01:31:35.699Z,99.90
2019-02-16T01:34:05.440Z,99.90
2019-02-16T01:36:35.009Z,99.90
2019-02-16T01:39:05.908Z,99.90
2019-02-16T01:41:35.479Z,99.90
2019-02-16T01:44:06.093Z,99.90
2019-02-16T01:46:35.694Z,99.90
2019-02-16T01:49:05.547Z,99.90
2019-02-16T01:51:35.132Z,99.90
2019-02-16T01:54:05.050Z,99.90
2019-02-16T01:56:34.641Z,99.90
2019-02-16T01:59:04.224Z,99.90
2019-02-16T02:01:33.767Z,99.90
2019-02-16T02:04:03.375Z,99.90
2019-02-16T02:06:33.191Z,99.90
2019-02-16T02:09:04.612Z,99.90
2019-02-16T02:11:34.224Z,99.90
2019-02-16T02:14:03.844Z,99.90
2019-02-16T02:16:33.407Z,99.90
2019-02-16T02:19:03.019Z,99.90
2019-02-16T02:21:40.647Z,99.90
2019-02-16T02:24:03.918Z,99.90
2019-02-16T02:26:33.502Z,99.90
2019-02-16T02:29:03.128Z,99.90
2019-02-16T02:31:46.042Z,99.90
2019-02-16T02:34:15.637Z,99.90
2019-02-16T02:36:45.161Z,99.90
2019-02-16T02:39:15.524Z,99.90
2019-02-16T02:41:46.572Z,99.90
2019-02-16T02:44:16.145Z,99.90
2019-02-16T02:46:45.771Z,99.90
2019-02-16T02:49:16.843Z,99.90
2019-02-16T02:51:52.305Z,99.90
2019-02-16T02:54:19.219Z,99.90
2019-02-16T02:56:48.780Z,99.90
2019-02-16T02:59:18.411Z,99.90
2019-02-16T03:02:07.282Z,99.90
2019-02-16T03:04:36.878Z,99.90
2019-02-16T03:07:06.496Z,99.90
2019-02-16T03:09:36.166Z,99.90
2019-02-16T03:12:07.243Z,99.90
2019-02-16T03:14:36.812Z,99.90
2019-02-16T03:17:06.468Z,99.90
2019-02-16T03:19:36.040Z,99.90
2019-02-16T03:22:26.414Z,99.90
2019-02-16T03:24:55.971Z,99.90
2019-02-16T03:27:30.001Z,99.90
2019-02-16T03:30:04.094Z,99.90
2019-02-16T03:32:38.140Z,99.90
2019-02-16T03:35:12.211Z,99.90
2019-02-16T03:38:04.073Z,99.90
2019-02-16T03:40:33.643Z,99.90
2019-02-16T03:43:04.539Z,99.90
2019-02-16T03:45:34.129Z,99.90
2019-02-16T03:48:03.764Z,99.90
2019-02-16T03:50:33.334Z,99.90
2019-02-16T03:53:02.894Z,99.90
2019-02-16T03:55:32.520Z,99.90
2019-02-16T03:58:02.086Z,99.90
2019-02-16T04:00:31.642Z,99.90
2019-02-16T04:03:01.254Z,99.90
2019-02-16T04:05:30.849Z,99.90
2019-02-16T04:08:03.391Z,99.90
2019-02-16T04:10:32.991Z,99.90
2019-02-16T04:13:02.641Z,99.90
2019-02-16T04:15:32.377Z,99.90
2019-02-16T04:18:02.003Z,99.90
2019-02-16T04:20:31.568Z,99.90
2019-02-16T04:23:01.174Z,99.90
2019-02-16T04:25:30.779Z,99.90
2019-02-16T04:28:00.362Z,99.90
2019-02-16T04:30:31.557Z,99.90
2019-02-16T04:33:05.283Z,99.90
2019-02-16T04:35:34.817Z,99.90
2019-02-16T04:38:04.387Z,99.90
2019-02-16T04:40:33.986Z,99.90
2019-02-16T04:43:03.661Z,99.90
2019-02-16T04:45:33.234Z,99.90
2019-02-16T04:48:02.790Z,99.90
2019-02-16T04:50:32.381Z,99.90
2019-02-16T04:53:02.044Z,99.90
2019-02-16T04:55:31.675Z,99.90
2019-02-16T04:58:01.233Z,99.90
2019-02-16T05:00:32.222Z,99.90
2019-02-16T05:03:01.882Z,99.90
2019-02-16T05:05:31.441Z,99.90
2019-02-16T05:08:01.045Z,99.90
2019-02-16T05:10:30.650Z,99.90
2019-02-16T05:13:00.322Z,99.90
2019-02-16T05:15:29.890Z,99.90
2019-02-16T05:17:59.546Z,99.90
2019-02-16T05:20:29.135Z,99.90
2019-02-16T05:22:58.727Z,99.90
2019-02-16T05:25:31.038Z,99.90
2019-02-16T05:28:00.595Z,99.90
2019-02-16T05:30:35.931Z,99.90
2019-02-16T05:33:06.495Z,99.90
2019-02-16T05:35:36.044Z,99.90
2019-02-16T05:38:05.624Z,99.90
2019-02-16T05:40:35.247Z,99.90
2019-02-16T05:43:04.847Z,99.90
2019-02-16T05:45:34.432Z,99.90
2019-02-16T05:48:04.222Z,99.90
2019-02-16T05:50:33.839Z,99.90
2019-02-16T05:53:03.389Z,99.90
2019-02-16T05:55:33.042Z,99.90
2019-02-16T05:58:02.569Z,99.90
2019-02-16T06:00:32.163Z,99.90
2019-02-16T06:03:01.814Z,99.90
2019-02-16T06:05:31.394Z,99.90
2019-02-16T06:08:00.986Z,99.90
2019-02-16T06:10:30.554Z,99.90
2019-02-16T06:13:00.122Z,99.90
2019-02-16T06:15:29.711Z,99.90
2019-02-16T06:17:59.580Z,99.90
2019-02-16T06:20:29.146Z,99.90
2019-02-16T06:23:04.226Z,99.90
2019-02-16T06:25:49.360Z,99.90
2019-02-16T06:28:18.961Z,99.90
2019-02-16T06:30:51.205Z,99.90
2019-02-16T06:33:41.867Z,99.90
2019-02-16T06:36:13.050Z,99.90
2019-02-16T06:39:01.991Z,99.90
2019-02-16T06:41:31.579Z,99.90
2019-02-16T06:44:01.185Z,99.90
2019-02-16T06:46:31.089Z,99.90
2019-02-16T06:49:00.654Z,99.90
2019-02-16T06:51:30.259Z,99.90
2019-02-16T06:54:19.137Z,99.90
2019-02-16T06:56:50.308Z,99.90
2019-02-16T06:59:19.879Z,99.90
2019-02-16T07:01:49.516Z,99.90
2019-02-16T07:04:19.110Z,99.90
2019-02-16T07:06:50.032Z,99.90
2019-02-16T07:09:19.656Z,99.90
2019-02-16T07:11:49.220Z,99.90
2019-02-16T07:14:18.904Z,99.90
2019-02-16T07:16:50.097Z,99.90
2019-02-16T07:19:21.254Z,99.90
2019-02-16T07:21:51.011Z,99.90
2019-02-16T07:24:20.608Z,99.90
2019-02-16T07:26:50.196Z,99.90
2019-02-16T07:29:19.745Z,99.90
2019-02-16T07:31:49.325Z,99.90
2019-02-16T07:34:20.261Z,99.90
2019-02-16T07:36:49.856Z,93.70
2019-02-16T07:39:22.355Z,72.90
2019-02-16T07:41:51.955Z,64.80
2019-02-16T07:44:23.141Z,60.60
2019-02-16T07:47:00.222Z,55.20
2019-02-16T07:49:31.363Z,51.10
2019-02-16T07:52:05.460Z,47.10
2019-02-16T07:54:36.630Z,45.40
2019-02-16T07:57:07.776Z,43.40
2019-02-16T07:59:39.323Z,41.50
2019-02-16T08:02:10.458Z,40.10
2019-02-16T08:04:41.646Z,38.90
2019-02-16T08:07:12.854Z,37.70
2019-02-16T08:09:53.254Z,36.80
2019-02-16T08:12:24.423Z,35.50
2019-02-16T08:14:57.120Z,34.70
2019-02-16T08:17:28.287Z,34.20
2019-02-16T08:19:59.457Z,33.90
2019-02-16T08:22:30.652Z,35.00
2019-02-16T08:25:21.116Z,34.70
2019-02-16T08:27:52.308Z,34.50
2019-02-16T08:30:43.077Z,34.90
2019-02-16T08:33:14.236Z,35.70
2019-02-16T08:35:46.407Z,36.90
2019-02-16T08:38:17.602Z,42.10
2019-02-16T08:40:48.757Z,63.40
2019-02-16T08:43:19.956Z,77.70
2019-02-16T08:46:10.456Z,50.00
2019-02-16T08:49:00.936Z,41.20
2019-02-16T08:51:32.127Z,37.70
2019-02-16T08:54:04.791Z,35.10
2019-02-16T08:56:55.272Z,33.30
2019-02-16T08:59:45.717Z,31.90
2019-02-16T09:02:16.956Z,31.00
2019-02-16T09:07:31.656Z,30.00
2019-02-16T09:10:02.814Z,29.50
2019-02-16T09:12:33.970Z,28.60
2019-02-16T09:15:24.482Z,31.10
2019-02-16T09:18:14.922Z,36.60
2019-02-16T09:20:46.156Z,34.30
2019-02-16T09:23:17.315Z,32.00
2019-02-16T09:26:07.781Z,30.50
2019-02-16T09:28:58.254Z,29.50
2019-02-16T09:31:48.957Z,28.80
2019-02-16T09:34:20.099Z,28.10
2019-02-16T09:36:51.257Z,28.60
2019-02-16T09:39:22.473Z,28.00
2019-02-16T09:41:53.634Z,28.70
2019-02-16T09:47:11.487Z,29.50
2019-02-16T09:49:44.166Z,30.40
2019-02-16T09:52:15.322Z,29.10
2019-02-16T09:54:46.617Z,28.60
2019-02-16T09:57:17.800Z,29.40
2019-02-16T09:59:48.985Z,28.30
2019-02-16T10:02:20.168Z,29.50
2019-02-16T10:04:51.311Z,34.60
2019-02-16T10:07:22.467Z,33.60
2019-02-16T10:09:53.673Z,31.90
2019-02-16T10:12:24.865Z,30.40
2019-02-16T10:14:56.039Z,29.60
2019-02-16T10:17:27.219Z,28.00
2019-02-16T10:19:58.462Z,27.60
2019-02-16T10:22:29.652Z,27.40
2019-02-16T10:25:01.073Z,27.10
2019-02-16T10:27:32.254Z,30.80
2019-02-16T10:30:03.409Z,30.70
2019-02-16T10:32:34.633Z,29.70
2019-02-16T10:35:06.609Z,29.20
2019-02-16T10:37:37.974Z,28.30
2019-02-16T10:40:09.787Z,27.90
2019-02-16T10:42:41.028Z,28.50
2019-02-16T10:45:15.497Z,28.20
2019-02-16T10:47:46.648Z,28.00
2019-02-16T10:50:17.838Z,27.90
2019-02-16T10:52:50.746Z,28.60
2019-02-16T10:58:12.295Z,30.00
2019-02-16T11:00:43.489Z,29.60
2019-02-16T11:03:16.127Z,29.20
2019-02-16T11:05:47.344Z,29.80
2019-02-16T11:08:18.589Z,31.60
2019-02-16T11:11:09.051Z,32.10
2019-02-16T11:16:27.343Z,34.40
2019-02-16T11:18:58.867Z,35.70
2019-02-16T11:21:30.042Z,36.20
2019-02-16T11:24:20.526Z,35.20
2019-02-16T11:26:51.703Z,35.50
2019-02-16T11:29:22.892Z,33.50
2019-02-16T11:31:54.384Z,31.50
2019-02-16T11:34:25.632Z,32.30
2019-02-16T11:37:01.077Z,31.10
2019-02-16T11:39:32.352Z,32.70
2019-02-16T11:42:03.502Z,31.90
2019-02-16T11:44:34.692Z,32.40
2019-02-16T11:47:05.867Z,31.90
2019-02-16T11:49:37.032Z,32.20
2019-02-16T11:52:08.225Z,33.90
2019-02-16T11:54:45.690Z,31.90
2019-02-16T11:57:12.875Z,30.70
2019-02-16T11:59:47.034Z,30.20
2019-02-16T12:02:18.227Z,29.70
2019-02-16T12:04:49.376Z,30.00
2019-02-16T12:07:20.558Z,29.90
2019-02-16T12:09:51.725Z,28.90
2019-02-16T12:12:22.920Z,30.30
2019-02-16T12:14:57.017Z,29.40
2019-02-16T12:17:28.233Z,30.00
2019-02-16T12:19:59.401Z,30.30
2019-02-16T12:22:30.618Z,30.20
2019-02-16T12:25:05.820Z,30.10
2019-02-16T12:27:34.717Z,31.30
2019-02-16T12:30:08.210Z,30.00
2019-02-16T12:32:39.363Z,30.00
2019-02-16T12:35:10.766Z,29.40
2019-02-16T12:37:42.443Z,30.10
2019-02-16T12:40:13.654Z,29.70
2019-02-16T12:42:57.250Z,29.90
2019-02-16T12:45:28.453Z,29.50
2019-02-16T12:47:59.603Z,28.80
2019-02-16T12:50:30.799Z,28.50
2019-02-16T12:53:01.965Z,29.30
2019-02-16T12:55:33.125Z,28.30
2019-02-16T12:58:04.415Z,28.20
2019-02-16T13:00:35.682Z,28.60
2019-02-16T13:03:06.868Z,28.20
2019-02-16T13:05:38.063Z,28.80
2019-02-16T13:08:09.237Z,29.50
2019-02-16T13:10:40.479Z,30.00
2019-02-16T13:13:17.759Z,29.70
2019-02-16T13:15:48.912Z,29.30
2019-02-16T13:18:20.106Z,29.30
2019-02-16T13:20:51.275Z,28.70
2019-02-16T13:23:22.465Z,28.00
2019-02-16T13:25:53.644Z,29.00
2019-02-16T13:28:24.870Z,28.60
2019-02-16T13:30:59.110Z,28.10
2019-02-16T13:33:49.878Z,28.00
2019-02-16T13:36:21.024Z,27.80
2019-02-16T13:38:53.269Z,27.70
2019-02-16T13:41:24.595Z,28.90
2019-02-16T13:43:55.825Z,29.50
2019-02-16T13:46:27.118Z,29.20
2019-02-16T13:48:58.293Z,29.10
2019-02-16T13:51:29.479Z,29.00
2019-02-16T13:54:00.661Z,29.30
2019-02-16T13:56:31.840Z,29.80
2019-02-16T13:59:03.027Z,30.30
2019-02-16T14:01:34.544Z,30.70
2019-02-16T14:04:10.333Z,30.60
2019-02-16T14:06:41.477Z,31.10
2019-02-16T14:09:12.678Z,31.50
2019-02-16T14:11:43.887Z,32.90
2019-02-16T14:14:15.037Z,33.20
2019-02-16T14:16:49.157Z,33.10
2019-02-16T14:19:19.076Z,33.90
2019-02-16T14:21:48.768Z,34.20
2019-02-16T14:24:19.918Z,34.60
2019-02-16T14:26:49.721Z,35.80
2019-02-16T14:29:19.335Z,37.00
2019-02-16T14:31:48.939Z,37.10
2019-02-16T14:34:18.514Z,37.20
2019-02-16T14:36:48.098Z,37.90
2019-02-16T14:39:18.049Z,38.30
2019-02-16T14:41:48.101Z,39.20
2019-02-16T14:44:17.693Z,39.00
2019-02-16T14:46:47.266Z,38.40
2019-02-16T14:49:16.977Z,39.40
2019-02-16T14:51:47.012Z,39.70
2019-02-16T14:54:16.611Z,38.00
2019-02-16T14:56:46.429Z,39.20
2019-02-16T14:59:16.056Z,39.90
2019-02-16T15:01:45.616Z,38.00
2019-02-16T15:04:15.333Z,39.20
2019-02-16T15:06:44.928Z,37.80
2019-02-16T15:09:14.515Z,39.00
2019-02-16T15:11:44.153Z,40.20
2019-02-16T15:14:13.735Z,40.90
2019-02-16T15:16:43.405Z,39.70
2019-02-16T15:19:13.017Z,40.30
2019-02-16T15:21:42.593Z,39.90
2019-02-16T15:24:12.191Z,40.90
2019-02-16T15:26:41.790Z,40.80
2019-02-16T15:29:11.404Z,41.70
2019-02-16T15:31:41.002Z,42.20
2019-02-16T15:34:10.578Z,41.10
2019-02-16T15:36:40.145Z,44.20
2019-02-16T15:39:09.783Z,43.50
2019-02-16T15:41:39.397Z,43.30
2019-02-16T15:44:10.732Z,44.00
2019-02-16T15:46:40.295Z,44.70
2019-02-16T15:49:10.234Z,44.90
2019-02-16T15:51:39.869Z,45.10
2019-02-16T15:54:09.651Z,44.90
2019-02-16T15:56:39.256Z,44.80
2019-02-16T15:59:09.595Z,46.00
2019-02-16T16:01:41.031Z,47.50
2019-02-16T16:04:10.661Z,48.20
2019-02-16T16:06:40.234Z,46.00
2019-02-16T16:09:11.727Z,48.50
2019-02-16T16:12:02.235Z,48.00
2019-02-16T16:14:33.483Z,48.80
2019-02-16T16:17:04.640Z,50.20
2019-02-16T16:19:35.851Z,50.50
2019-02-16T16:22:07.009Z,52.20
2019-02-16T16:24:38.176Z,53.30
2019-02-16T16:27:09.672Z,55.50
2019-02-16T16:29:41.046Z,57.30
2019-02-16T16:32:12.233Z,59.90
2019-02-16T16:34:43.445Z,68.50
2019-02-16T16:37:14.630Z,72.70
2019-02-16T16:39:45.818Z,82.10
2019-02-16T16:42:17.397Z,90.80
2019-02-16T16:44:48.616Z,94.90
2019-02-16T16:47:19.767Z,99.00
2019-02-16T16:49:56.994Z,99.90
2019-02-16T16:52:28.195Z,99.90
2019-02-16T16:54:59.331Z,99.90
2019-02-16T16:57:30.532Z,99.90
2019-02-16T17:00:04.810Z,99.90
2019-02-16T17:02:35.993Z,99.90
2019-02-16T17:05:09.132Z,99.90
2019-02-16T17:07:40.303Z,99.90
2019-02-16T17:10:11.640Z,99.90
2019-02-16T17:12:42.777Z,99.90
2019-02-16T17:15:14.096Z,99.90
2019-02-16T17:17:46.533Z,99.90
2019-02-16T17:20:17.733Z,99.90
2019-02-16T17:22:48.851Z,99.90
2019-02-16T17:25:20.017Z,99.90
2019-02-16T17:27:51.197Z,99.90
2019-02-16T17:30:25.250Z,99.90
2019-02-16T17:32:56.464Z,99.90
2019-02-16T17:35:27.984Z,99.90
2019-02-16T17:37:59.120Z,99.90
2019-02-16T17:40:36.260Z,99.90
2019-02-16T17:43:07.413Z,99.90
2019-02-16T17:45:38.648Z,99.90
2019-02-16T17:48:09.832Z,99.90
2019-02-16T17:50:47.060Z,99.90
2019-02-16T17:53:18.268Z,99.90
2019-02-16T17:55:55.364Z,99.90
2019-02-16T17:58:32.463Z,99.90
2019-02-16T18:01:09.533Z,99.90
2019-02-16T18:03:40.714Z,99.90
2019-02-16T18:06:11.887Z,99.90
2019-02-16T18:08:43.022Z,99.90
2019-02-16T18:11:14.229Z,99.90
2019-02-16T18:13:45.393Z,99.90
2019-02-16T18:16:16.549Z,99.90
2019-02-16T18:18:48.034Z,99.90
2019-02-16T18:21:38.485Z,99.90
2019-02-16T18:24:15.655Z,99.90
2019-02-16T18:26:55.823Z,99.90
2019-02-16T18:29:19.712Z,99.90
2019-02-16T18:31:50.948Z,99.90
2019-02-16T18:34:22.103Z,99.90
2019-02-16T18:36:53.339Z,99.90
2019-02-16T18:39:24.592Z,99.90
2019-02-16T18:41:55.773Z,99.90
2019-02-16T18:44:26.891Z,99.90
2019-02-16T18:46:58.231Z,99.90
2019-02-16T18:49:35.297Z,99.90
2019-02-16T18:52:06.526Z,99.90
2019-02-16T18:54:37.686Z,99.90
2019-02-16T18:57:08.833Z,99.90
2019-02-16T18:59:39.987Z,99.90
2019-02-16T19:02:11.158Z,99.90
2019-02-16T19:04:42.315Z,99.90
2019-02-16T19:07:13.504Z,99.90
2019-02-16T19:09:44.657Z,99.90
2019-02-16T19:12:15.850Z,99.90
2019-02-16T19:15:07.973Z,99.90
2019-02-16T19:17:39.110Z,99.90
2019-02-16T19:20:12.272Z,99.90
2019-02-16T19:25:32.837Z,99.90
2019-02-16T19:28:04.379Z,99.90
2019-02-16T19:30:35.897Z,99.90
2019-02-16T19:33:07.206Z,99.90
2019-02-16T19:35:38.345Z,99.90
2019-02-16T19:38:09.581Z,99.90
2019-02-16T19:40:40.749Z,99.90
2019-02-16T19:43:11.904Z,99.90
2019-02-16T19:45:43.061Z,99.90
2019-02-16T19:48:16.668Z,99.90
2019-02-16T19:50:47.180Z,99.90
2019-02-16T19:53:18.395Z,99.90
2019-02-16T19:55:49.568Z,99.90
2019-02-16T19:58:20.815Z,99.90
2019-02-16T20:00:51.983Z,99.90
2019-02-16T20:03:23.457Z,99.90
2019-02-16T20:05:56.164Z,99.90
2019-02-16T20:08:27.446Z,99.90
2019-02-16T20:10:58.900Z,99.90
2019-02-16T20:13:30.052Z,99.90
2019-02-16T20:16:01.192Z,99.90
2019-02-16T20:18:32.779Z,99.90
2019-02-16T20:21:03.946Z,99.90
2019-02-16T20:23:35.087Z,99.90
2019-02-16T20:26:06.285Z,99.90
2019-02-16T20:28:37.818Z,99.90
2019-02-16T20:31:08.972Z,99.90
2019-02-16T20:33:40.451Z,99.90
2019-02-16T20:36:11.590Z,99.90
2019-02-16T20:38:42.721Z,99.90
2019-02-16T20:41:13.910Z,99.90
2019-02-16T20:43:50.984Z,99.90
2019-02-16T20:46:22.163Z,99.90
2019-02-16T20:48:53.386Z,99.90
2019-02-16T20:51:24.523Z,99.90
2019-02-16T20:53:55.743Z,99.90
2019-02-16T20:56:26.897Z,99.90
2019-02-16T20:58:58.031Z,99.90
2019-02-16T21:01:29.232Z,99.90
2019-02-16T21:04:00.383Z,99.90
2019-02-16T21:06:31.564Z,99.90
2019-02-16T21:09:07.069Z,99.90
2019-02-16T21:11:38.220Z,99.90
2019-02-16T21:14:09.365Z,99.90
2019-02-16T21:16:40.519Z,99.90
2019-02-16T21:19:11.702Z,99.90
2019-02-16T21:21:42.872Z,99.90
2019-02-16T21:24:14.048Z,99.90
2019-02-16T21:26:45.271Z,99.90
2019-02-16T21:29:16.518Z,99.90
2019-02-16T21:31:47.711Z,99.90
2019-02-16T21:34:18.848Z,99.90
2019-02-16T21:36:52.962Z,99.90
2019-02-16T21:39:30.089Z,99.90
2019-02-16T21:42:01.254Z,99.90
2019-02-16T21:44:35.302Z,99.90
2019-02-16T21:47:06.461Z,99.90
2019-02-16T21:49:39.426Z,99.90
2019-02-16T21:52:11.821Z,99.90
2019-02-16T21:54:42.876Z,99.90
2019-02-16T21:57:14.051Z,99.90
2019-02-16T21:59:45.443Z,99.90
2019-02-16T22:02:16.624Z,99.90
2019-02-16T22:04:47.997Z,99.90
2019-02-16T22:07:19.258Z,99.90
2019-02-16T22:09:50.431Z,99.90
2019-02-16T22:12:24.714Z,99.90
2019-02-16T22:14:54.294Z,99.90
2019-02-16T22:17:23.852Z,99.90
2019-02-16T22:19:53.429Z,99.90
2019-02-16T22:22:23.008Z,99.90
2019-02-16T22:24:52.585Z,99.90
2019-02-16T22:27:22.179Z,99.90
2019-02-16T22:29:54.635Z,99.90
2019-02-16T22:32:24.494Z,99.90
2019-02-16T22:34:54.076Z,99.90
2019-02-16T22:37:26.592Z,99.90
2019-02-16T22:39:57.759Z,99.90
2019-02-16T22:42:27.381Z,99.90
2019-02-16T22:44:59.705Z,99.90
2019-02-16T22:47:29.283Z,99.90
2019-02-16T22:49:58.891Z,99.90
2019-02-16T22:52:28.645Z,99.90
2019-02-16T22:54:58.216Z,99.90
2019-02-16T22:57:27.991Z,99.90
2019-02-16T22:59:57.556Z,99.90
2019-02-16T23:02:27.212Z,99.90
2019-02-16T23:04:56.794Z,99.90
2019-02-16T23:07:26.917Z,99.90
2019-02-16T23:09:56.498Z,99.90
2019-02-16T23:12:26.070Z,99.90
2019-02-16T23:14:55.632Z,99.90
2019-02-16T23:17:25.189Z,99.90
2019-02-16T23:19:54.812Z,99.90
2019-02-16T23:22:24.367Z,99.90
2019-02-16T23:24:53.944Z,99.90
2019-02-16T23:27:23.618Z,99.90
2019-02-16T23:29:53.200Z,99.90
2019-02-16T23:32:22.756Z,99.90
2019-02-16T23:34:52.376Z,99.90
2019-02-16T23:37:21.959Z,99.90
2019-02-16T23:39:51.531Z,99.90
2019-02-16T23:42:21.160Z,99.90
2019-02-16T23:44:50.703Z,99.90
2019-02-16T23:47:20.541Z,99.90
2019-02-16T23:49:50.145Z,99.90
2019-02-16T23:52:19.738Z,99.90
2019-02-16T23:54:50.178Z,99.90
2019-02-16T23:57:21.395Z,99.90
2019-02-16T23:59:50.972Z,99.90
